Time;durP1;ratioP1;P1;durP2;ratioP2;P2;SDS_P1;SDS_P2;PMS_P1;PMS_P2;Temp;Humidity;BMP_temperature;BMP_pressure;BME280_temperature;BME280_humidity;BME280_pressure;Samples;Min_cycle;Max_cycle;Signal;HPM_P1;HPM_P2
2023/08/26 00:01:54;;;;;;;67.72;29.98;;;;;;;;;;5112637;28;20544;-73
2023/08/26 00:04:20;;;;;;;;;;;;;;;;;;5096550;28;20143;-73
2023/08/26 00:06:46;;;;;;;69.32;29.17;;;;;;;;;;5114314;28;19920;-73
2023/08/26 00:09:12;;;;;;;;;;;;;;;;;;5091789;28;20040;-73
2023/08/26 00:11:38;;;;;;;65.57;27.80;;;;;;;;;;5113018;28;19919;-73
2023/08/26 00:14:04;;;;;;;;;;;;;;;;;;5097630;27;20070;-73
2023/08/26 00:16:30;;;;;;;59.60;26.00;;;;;;;;;;5133307;27;20287;-73
2023/08/26 00:18:59;;;;;;;;;;;;;;;;;;5133764;27;20537;-74
2023/08/26 00:21:25;;;;;;;59.03;26.92;;;;;;;;;;5132995;27;19962;-73
2023/08/26 00:23:51;;;;;;;54.95;26.33;;;;;;;;;;5133537;27;20476;-73
2023/08/26 00:26:17;;;;;;;;;;;;;;;;;;5116318;27;20043;-73
2023/08/26 00:28:44;;;;;;;61.13;27.70;;;;;;;;;;5126218;27;19920;-73
2023/08/26 00:31:10;;;;;;;54.50;25.83;;;;;;;;;;5098652;27;20399;-76
2023/08/26 00:33:36;;;;;;;;;;;;;;;;;;5133150;27;20116;-73
2023/08/26 00:36:02;;;;;;;54.15;25.42;;;;;;;;;;5115451;27;20380;-73
2023/08/26 00:38:28;;;;;;;;;;;;;;;;;;5112576;28;20113;-73
2023/08/26 00:40:54;;;;;;;48.10;23.60;;;;;;;;;;5112546;28;19923;-74
2023/08/26 00:43:20;;;;;;;43.13;21.83;;;;;;;;;;5094087;28;20055;-73
2023/08/26 00:45:46;;;;;;;;;;;;;;;;;;5096323;28;20055;-73
2023/08/26 00:48:12;;;;;;;43.72;21.20;;;;;;;;;;5111585;28;19919;-74
2023/08/26 00:50:47;;;;;;;36.42;20.35;;;;;;;;;;5095669;28;20423;-73
2023/08/26 00:53:13;;;;;;;43.05;21.13;;;;;;;;;;5111636;27;20462;-75
2023/08/26 00:55:40;;;;;;;37.10;19.95;;;;;;;;;;5132753;27;20111;-74
2023/08/26 00:58:07;;;;;;;34.97;19.42;;;;;;;;;;5131522;27;20078;-72
2023/08/26 01:00:36;;;;;;;37.20;19.20;;;;;;;;;;5114644;27;20126;-73
2023/08/26 01:03:03;;;;;;;37.28;20.10;;;;;;;;;;5111285;28;20054;-73
2023/08/26 01:05:29;;;;;;;34.97;18.60;;;;;;;;;;5132058;27;20066;-73
2023/08/26 01:07:56;;;;;;;42.10;19.33;;;;;;;;;;5109140;28;20467;-73
2023/08/26 01:10:24;;;;;;;33.70;18.27;;;;;;;;;;5094174;28;20054;-73
2023/08/26 01:12:50;;;;;;;40.17;19.02;;;;;;;;;;5111438;28;20112;-73
2023/08/26 01:15:17;;;;;;;34.28;18.70;;;;;;;;;;5116217;27;20078;-72
2023/08/26 01:17:43;;;;;;;34.60;19.02;;;;;;;;;;5132071;27;20046;-72
2023/08/26 01:20:09;;;;;;;40.13;17.65;;;;;;;;;;5121269;27;20126;-73
2023/08/26 01:22:37;;;;;;;36.03;17.48;;;;;;;;;;5123842;27;20457;-73
2023/08/26 01:25:03;;;;;;;32.03;17.67;;;;;;;;;;5132176;27;20084;-73
2023/08/26 01:27:29;;;;;;;31.58;16.85;;;;;;;;;;5130908;27;20047;-73
2023/08/26 01:29:56;;;;;;;;;;;;;;;;;;5132042;27;20416;-73
2023/08/26 01:32:28;;;;;;;29.55;16.95;;;;;;;;;;5111283;27;19951;-73
2023/08/26 01:34:56;;;;;;;32.42;16.77;;;;;;;;;;5102455;27;20158;-73
2023/08/26 01:37:23;;;;;;;33.85;16.55;;;;;;;;;;5120101;27;20082;-73
2023/08/26 01:39:51;;;;;;;31.63;15.63;;;;;;;;;;5111159;28;20400;-73
2023/08/26 01:42:19;;;;;;;32.03;15.90;;;;;;;;;;5110011;28;20048;-75
2023/08/26 01:44:45;;;;;;;28.60;15.40;;;;;;;;;;5112259;27;20090;-73
2023/08/26 01:47:11;;;;;;;28.27;15.15;;;;;;;;;;5094250;28;20440;-73
2023/08/26 01:49:37;;;;;;;;;;;;;;;;;;5111532;28;20044;-73
2023/08/26 01:52:03;;;;;;;31.50;14.57;;;;;;;;;;5119927;27;19925;-72
2023/08/26 01:54:30;;;;;;;32.78;15.95;;;;;;;;;;5114439;28;20468;-73
2023/08/26 01:56:56;;;;;;;32.78;14.70;;;;;;;;;;5131754;27;20045;-73
2023/08/26 01:59:22;;;;;;;;;;;;;;;;;;5130424;27;20047;-72
2023/08/26 02:01:48;;;;;;;28.15;14.02;;;;;;;;;;5133119;27;20233;-73
2023/08/26 02:04:14;;;;;;;;;;;;;;;;;;5135730;27;20049;-73
2023/08/26 02:06:40;;;;;;;29.27;14.77;;;;;;;;;;5151940;27;19923;-72
2023/08/26 02:09:09;;;;;;;27.25;14.80;;;;;;;;;;5134174;27;20050;-72
2023/08/26 02:11:35;;;;;;;37.13;16.27;;;;;;;;;;5097138;28;20047;-73
2023/08/26 02:14:01;;;;;;;;;;;;;;;;;;5114295;28;20046;-73
2023/08/26 02:16:27;;;;;;;34.80;17.00;;;;;;;;;;5114128;28;19919;-72
2023/08/26 02:18:53;;;;;;;;;;;;;;;;;;5132647;28;20043;-73
2023/08/26 02:21:19;;;;;;;34.28;16.45;;;;;;;;;;5114613;27;19919;-75
2023/08/26 02:23:45;;;;;;;;;;;;;;;;;;5115790;27;20133;-72
2023/08/26 02:26:12;;;;;;;34.05;16.23;;;;;;;;;;5118747;27;19965;-73
2023/08/26 02:28:38;;;;;;;34.85;16.98;;;;;;;;;;5135224;27;20510;-73
2023/08/26 02:31:06;;;;;;;34.53;15.90;;;;;;;;;;5139241;27;20468;-73
2023/08/26 02:33:32;;;;;;;37.30;17.65;;;;;;;;;;5137818;27;20476;-73
2023/08/26 02:35:58;;;;;;;36.20;17.15;;;;;;;;;;5132391;27;20043;-72
2023/08/26 02:38:25;;;;;;;;;;;;;;;;;;5101443;27;20057;-73
2023/08/26 02:40:57;;;;;;;35.78;16.50;;;;;;;;;;5118330;27;19926;-72
2023/08/26 02:43:23;;;;;;;37.85;16.50;;;;;;;;;;5133241;27;20050;-75
2023/08/26 02:45:56;;;;;;;36.10;16.25;;;;;;;;;;5113044;27;20498;-72
2023/08/26 02:48:22;;;;;;;33.85;16.77;;;;;;;;;;5115558;27;20054;-73
2023/08/26 02:50:55;;;;;;;32.97;15.23;;;;;;;;;;5116561;27;20487;-73
2023/08/26 02:53:21;;;;;;;26.15;15.88;;;;;;;;;;5117620;27;20498;-73
2023/08/26 02:55:47;;;;;;;;;;;;;;;;;;5101059;27;20054;-73
2023/08/26 02:58:13;;;;;;;34.00;16.13;;;;;;;;;;5117056;27;19920;-73
2023/08/26 03:00:39;;;;;;;;;;;;;;;;;;5100857;27;20043;-72
2023/08/26 03:03:05;;;;;;;36.75;16.05;;;;;;;;;;5116840;27;19924;-74
2023/08/26 03:05:31;;;;;;;;;;;;;;;;;;5138660;27;20046;-73
2023/08/26 03:07:57;;;;;;;38.97;17.17;;;;;;;;;;5135560;27;19919;-73
2023/08/26 03:10:23;;;;;;;;;;;;;;;;;;5138996;27;20047;-73
2023/08/26 03:12:49;;;;;;;37.40;17.35;;;;;;;;;;5136841;27;20245;-72
2023/08/26 03:15:15;;;;;;;;;;;;;;;;;;5138469;27;20142;-72
2023/08/26 03:17:41;;;;;;;32.20;14.75;;;;;;;;;;5137391;27;19919;-72
2023/08/26 03:20:07;;;;;;;;;;;;;;;;;;5138919;27;20050;-73
2023/08/26 03:22:33;;;;;;;31.73;14.93;;;;;;;;;;5129918;27;19919;-73
2023/08/26 03:24:59;;;;;;;;;;;;;;;;;;5121589;27;20051;-72
2023/08/26 03:27:25;;;;;;;29.55;14.63;;;;;;;;;;5137455;27;19930;-73
2023/08/26 03:29:51;;;;;;;;;;;;;;;;;;5137608;27;20082;-73
2023/08/26 03:32:17;;;;;;;28.42;14.82;;;;;;;;;;5134722;27;19999;-73
2023/08/26 03:34:43;;;;;;;;;;;;;;;;;;5116951;27;20065;-73
2023/08/26 03:37:09;;;;;;;26.65;15.38;;;;;;;;;;5124992;27;20002;-73
2023/08/26 03:39:35;;;;;;;30.17;15.35;;;;;;;;;;5126130;27;20086;-73
2023/08/26 03:42:02;;;;;;;;;;;;;;;;;;5137733;27;20396;-72
2023/08/26 03:44:28;;;;;;;28.85;14.43;;;;;;;;;;5137039;27;19919;-72
2023/08/26 03:46:54;;;;;;;;;;;;;;;;;;5130971;27;20476;-72
2023/08/26 03:49:20;;;;;;;30.80;15.40;;;;;;;;;;5117298;27;19920;-73
2023/08/26 03:51:46;;;;;;;;;;;;;;;;;;5117122;27;20043;-72
2023/08/26 03:54:12;;;;;;;31.02;15.38;;;;;;;;;;5116914;27;19919;-72
2023/08/26 03:56:38;;;;;;;;;;;;;;;;;;5116873;27;20050;-72
2023/08/26 03:59:04;;;;;;;35.75;16.38;;;;;;;;;;5116072;27;19923;-73
2023/08/26 04:01:31;;;;;;;34.90;16.05;;;;;;;;;;5117354;27;20413;-74
2023/08/26 04:03:57;;;;;;;34.97;16.38;;;;;;;;;;5119676;27;20051;-72
2023/08/26 04:06:23;;;;;;;;;;;;;;;;;;5117421;27;20051;-72
2023/08/26 04:08:49;;;;;;;36.95;16.63;;;;;;;;;;5121218;27;20039;-72
2023/08/26 04:11:17;;;;;;;31.20;15.52;;;;;;;;;;5137109;27;20502;-72
2023/08/26 04:13:45;;;;;;;36.30;16.65;;;;;;;;;;5135615;27;20050;-72
2023/08/26 04:16:11;;;;;;;31.88;16.38;;;;;;;;;;5155703;27;20050;-72
2023/08/26 04:18:37;;;;;;;31.70;16.75;;;;;;;;;;5136120;27;20042;-72
2023/08/26 04:21:03;;;;;;;;;;;;;;;;;;5137457;27;20042;-73
2023/08/26 04:23:30;;;;;;;35.15;15.75;;;;;;;;;;5136881;27;19934;-73
2023/08/26 04:26:00;;;;;;;31.10;14.65;;;;;;;;;;5136060;27;20129;-73
2023/08/26 04:28:27;;;;;;;29.75;14.98;;;;;;;;;;5101878;27;20051;-72
2023/08/26 04:30:53;;;;;;;28.13;14.38;;;;;;;;;;5135980;27;20038;-73
2023/08/26 04:33:20;;;;;;;;;;;;;;;;;;5133994;27;20483;-72
2023/08/26 04:35:46;;;;;;;29.20;13.98;;;;;;;;;;5131517;27;19973;-70
2023/08/26 04:38:13;;;;;;;25.80;14.10;;;;;;;;;;5150019;27;20046;-71
2023/08/26 04:40:41;;;;;;;23.33;13.25;;;;;;;;;;5154461;27;20122;-71
2023/08/26 04:43:08;;;;;;;25.00;13.23;;;;;;;;;;5153857;27;20046;-71
2023/08/26 04:45:34;;;;;;;26.10;14.50;;;;;;;;;;5135904;27;20043;-72
2023/08/26 04:48:01;;;;;;;29.80;13.38;;;;;;;;;;5135709;27;20038;-70
2023/08/26 04:50:27;;;;;;;29.30;14.13;;;;;;;;;;5153154;27;20607;-71
2023/08/26 04:52:53;;;;;;;27.90;13.77;;;;;;;;;;5115246;27;20047;-71
2023/08/26 04:55:19;;;;;;;;;;;;;;;;;;5134516;27;20080;-71
2023/08/26 04:57:45;;;;;;;31.95;13.98;;;;;;;;;;5132399;27;19959;-71
2023/08/26 05:00:11;;;;;;;25.95;14.18;;;;;;;;;;5133233;27;20527;-70
2023/08/26 05:02:41;;;;;;;34.25;15.55;;;;;;;;;;5150212;27;20178;-77
2023/08/26 05:05:07;;;;;;;30.70;14.95;;;;;;;;;;5153907;27;20119;-70
2023/08/26 05:07:33;;;;;;;28.92;14.32;;;;;;;;;;5128453;27;20042;-73
2023/08/26 05:09:59;;;;;;;;;;;;;;;;;;5126867;27;20050;-71
2023/08/26 05:12:26;;;;;;;38.90;15.23;;;;;;;;;;5114307;27;19923;-71
2023/08/26 05:14:52;;;;;;;32.70;15.65;;;;;;;;;;5132613;27;20047;-70
2023/08/26 05:17:18;;;;;;;35.25;16.40;;;;;;;;;;5115162;27;20054;-70
2023/08/26 05:19:44;;;;;;;;;;;;;;;;;;5115309;27;20050;-70
2023/08/26 05:22:10;;;;;;;32.17;15.73;;;;;;;;;;5123809;27;19920;-71
2023/08/26 05:24:36;;;;;;;;;;;;;;;;;;5115428;27;20046;-75
2023/08/26 05:27:03;;;;;;;30.60;14.23;;;;;;;;;;5132459;27;19972;-70
2023/08/26 05:29:29;;;;;;;27.52;14.55;;;;;;;;;;5124730;27;20043;-71
2023/08/26 05:31:55;;;;;;;;;;;;;;;;;;5114465;27;20051;-70
2023/08/26 05:34:21;;;;;;;25.55;13.85;;;;;;;;;;5115011;27;19919;-71
2023/08/26 05:36:47;;;;;;;25.00;12.45;;;;;;;;;;5128035;27;20491;-71
2023/08/26 05:39:13;;;;;;;23.67;12.40;;;;;;;;;;5151366;27;20058;-71
2023/08/26 05:41:39;;;;;;;;;;;;;;;;;;5152901;27;20464;-71
2023/08/26 05:44:06;;;;;;;26.08;13.45;;;;;;;;;;5133297;27;20001;-71
2023/08/26 05:46:32;;;;;;;25.40;14.52;;;;;;;;;;5135600;27;20061;-70
2023/08/26 05:48:58;;;;;;;27.52;13.85;;;;;;;;;;5134598;27;20068;-72
2023/08/26 05:51:24;;;;;;;;;;;;;;;;;;5150946;27;20135;-72
2023/08/26 05:53:50;;;;;;;27.95;15.38;;;;;;;;;;5152621;27;20056;-72
2023/08/26 05:56:16;;;;;;;;;;;;;;;;;;5114665;27;20104;-71
2023/08/26 05:58:42;;;;;;;28.70;14.95;;;;;;;;;;5113578;27;20364;-77
2023/08/26 06:01:08;;;;;;;;;;;;;;;;;;5116539;28;20050;-71
2023/08/26 06:03:35;;;;;;;30.30;16.85;;;;;;;;;;5118358;27;19919;-70
2023/08/26 06:06:03;;;;;;;;;;;;;;;;;;5118066;27;20051;-70
2023/08/26 06:08:29;;;;;;;33.40;17.13;;;;;;;;;;5130445;27;19926;-70
2023/08/26 06:10:55;;;;;;;;;;;;;;;;;;5140675;27;20496;-71
2023/08/26 06:13:21;;;;;;;31.95;17.55;;;;;;;;;;5126285;27;19979;-71
2023/08/26 06:15:53;;;;;;;35.42;18.13;;;;;;;;;;5131171;27;20102;-75
2023/08/26 06:18:19;;;;;;;28.77;17.55;;;;;;;;;;5120552;27;20043;-71
2023/08/26 06:20:45;;;;;;;33.30;17.55;;;;;;;;;;5118197;28;20059;-77
2023/08/26 06:23:12;;;;;;;32.83;16.83;;;;;;;;;;5131221;27;20038;-72
2023/08/26 06:25:38;;;;;;;31.48;17.77;;;;;;;;;;5110680;27;20043;-72
2023/08/26 06:28:04;;;;;;;31.50;17.27;;;;;;;;;;5120075;27;20039;-71
2023/08/26 06:30:30;;;;;;;36.08;18.67;;;;;;;;;;5135000;27;20046;-70
2023/08/26 06:32:56;;;;;;;;;;;;;;;;;;5126060;27;20569;-70
2023/08/26 06:35:26;;;;;;;32.70;18.80;;;;;;;;;;5134476;27;19927;-72
2023/08/26 06:37:52;;;;;;;36.50;20.38;;;;;;;;;;5121349;27;20551;-73
2023/08/26 06:40:18;;;;;;;;;;;;;;;;;;5119697;27;20361;-73
2023/08/26 06:42:44;;;;;;;35.42;20.92;;;;;;;;;;5112966;28;20291;-72
2023/08/26 06:45:10;;;;;;;;;;;;;;;;;;5127668;27;20242;-73
2023/08/26 06:47:36;;;;;;;33.63;20.55;;;;;;;;;;5101045;28;20373;-72
2023/08/26 06:50:02;;;;;;;;;;;;;;;;;;5123844;27;20043;-72
2023/08/26 06:52:30;;;;;;;32.22;19.48;;;;;;;;;;5151911;27;20379;-72
2023/08/26 06:54:56;;;;;;;25.45;16.88;;;;;;;;;;5112450;28;20039;-72
2023/08/26 06:57:21;;;;;;;;;;;;;;;;;;5096909;28;20118;-72
2023/08/26 06:59:47;;;;;;;26.10;15.70;;;;;;;;;;5124368;27;20084;-72
2023/08/26 07:02:15;;;;;;;;;;;;;;;;;;5133746;27;20057;-72
2023/08/26 07:04:41;;;;;;;;;;;;;;;;;;5134758;27;20005;-72
2023/08/26 07:07:07;;;;;;;21.80;12.43;;;;;;;;;;5133767;27;20052;-73
2023/08/26 07:09:33;;;;;;;33.83;15.82;;;;;;;;;;5115896;27;20050;-72
2023/08/26 07:11:59;;;;;;;;;;;;;;;;;;5133987;27;20050;-72
2023/08/26 07:14:25;;;;;;;26.80;15.13;;;;;;;;;;5137499;27;19930;-73
2023/08/26 07:16:51;;;;;;;25.65;16.45;;;;;;;;;;5155911;27;20395;-72
2023/08/26 07:19:17;;;;;;;;;;;;;;;;;;5121059;27;20055;-73
2023/08/26 07:21:43;;;;;;;28.58;15.73;;;;;;;;;;5124037;27;19925;-72
2023/08/26 07:24:09;;;;;;;;;;;;;;;;;;5137837;27;20095;-72
2023/08/26 07:26:36;;;;;;;29.38;15.63;;;;;;;;;;5137691;27;19927;-73
2023/08/26 07:29:02;;;;;;;27.02;17.35;;;;;;;;;;5126087;27;20049;-73
2023/08/26 07:31:28;;;;;;;;;;;;;;;;;;5132054;27;20069;-72
2023/08/26 07:33:54;;;;;;;26.17;16.77;;;;;;;;;;5136458;27;19923;-74
2023/08/26 07:36:20;;;;;;;;;;;;;;;;;;5117545;27;20091;-73
2023/08/26 07:38:46;;;;;;;30.23;18.67;;;;;;;;;;5130596;27;19919;-73
2023/08/26 07:41:12;;;;;;;;;;;;;;;;;;5135308;27;20047;-72
2023/08/26 07:43:38;;;;;;;26.80;18.13;;;;;;;;;;5136757;27;19926;-72
2023/08/26 07:46:04;;;;;;;;;;;;;;;;;;5099898;27;20095;-72
2023/08/26 07:48:31;;;;;;;30.77;17.83;;;;;;;;;;5119842;27;19919;-72
2023/08/26 07:50:57;;;;;;;32.15;18.25;;;;;;;;;;5155763;27;20047;-75
2023/08/26 07:53:23;;;;;;;;;;;;;;;;;;5134019;27;20134;-72
2023/08/26 07:55:49;;;;;;;33.33;19.10;;;;;;;;;;5127379;27;20006;-72
2023/08/26 07:58:15;;;;;;;;;;;;;;;;;;5101694;27;20051;-72
2023/08/26 08:00:41;;;;;;;29.85;18.20;;;;;;;;;;5127166;27;19919;-72
2023/08/26 08:03:07;;;;;;;;;;;;;;;;;;5136421;27;20099;-72
2023/08/26 08:05:33;;;;;;;25.27;17.02;;;;;;;;;;5136760;27;19923;-74
2023/08/26 08:07:59;;;;;;;;;;;;;;;;;;5155707;27;20047;-75
2023/08/26 08:10:25;;;;;;;26.35;16.63;;;;;;;;;;5120101;27;20268;-72
2023/08/26 08:12:51;;;;;;;;;;;;;;;;;;5105824;27;20046;-72
2023/08/26 08:15:17;;;;;;;32.33;18.75;;;;;;;;;;5115801;27;19919;-72
2023/08/26 08:17:43;;;;;;;;;;;;;;;;;;5116588;27;20369;-72
2023/08/26 08:20:09;;;;;;;22.98;14.88;;;;;;;;;;5115847;27;19934;-72
2023/08/26 08:22:40;;;;;;;32.67;17.70;;;;;;;;;;5126010;27;20047;-72
2023/08/26 08:25:06;;;;;;;25.50;14.85;;;;;;;;;;5101922;27;20043;-72
2023/08/26 08:27:32;;;;;;;21.38;15.18;;;;;;;;;;5126234;27;20050;-73
2023/08/26 08:29:59;;;;;;;;;;;;;;;;;;5136773;27;20604;-72
2023/08/26 08:32:25;;;;;;;23.58;13.52;;;;;;;;;;5114959;27;19995;-72
2023/08/26 08:34:51;;;;;;;21.92;15.05;;;;;;;;;;5133986;27;20035;-72
2023/08/26 08:37:17;;;;;;;;;;;;;;;;;;5136498;27;20117;-72
2023/08/26 08:39:43;;;;;;;23.75;14.07;;;;;;;;;;5136654;27;19926;-72
2023/08/26 08:42:09;;;;;;;;;;;;;;;;;;5119051;27;20043;-73
2023/08/26 08:44:40;;;;;;;22.15;13.05;;;;;;;;;;5135854;27;19923;-72
2023/08/26 08:47:07;;;;;;;24.75;15.32;;;;;;;;;;5118676;27;20042;-73
2023/08/26 08:49:33;;;;;;;;;;;;;;;;;;5119984;27;20064;-72
2023/08/26 08:51:59;;;;;;;20.00;14.38;;;;;;;;;;5136287;27;19919;-73
2023/08/26 08:54:29;;;;;;;25.23;14.65;;;;;;;;;;5135898;27;20133;-72
2023/08/26 08:56:56;;;;;;;19.13;14.02;;;;;;;;;;5136095;27;20065;-72
2023/08/26 08:59:22;;;;;;;18.17;12.05;;;;;;;;;;5134953;27;20046;-73
2023/08/26 09:01:48;;;;;;;16.95;12.32;;;;;;;;;;5135753;27;20403;-72
2023/08/26 09:04:15;;;;;;;23.13;12.77;;;;;;;;;;5135440;27;20126;-72
2023/08/26 09:06:41;;;;;;;19.40;11.60;;;;;;;;;;5136134;27;20063;-72
2023/08/26 09:09:14;;;;;;;;;;;;;;;;;;5135788;27;20078;-72
2023/08/26 09:11:40;;;;;;;21.65;11.60;;;;;;;;;;5135891;27;20245;-72
2023/08/26 09:14:06;;;;;;;;;;;;;;;;;;5134948;27;20499;-75
2023/08/26 09:16:35;;;;;;;19.00;11.05;;;;;;;;;;5119007;27;19988;-73
2023/08/26 09:19:03;;;;;;;17.00;10.77;;;;;;;;;;5135567;27;20484;-72
2023/08/26 09:21:29;;;;;;;15.80;11.07;;;;;;;;;;5135428;27;20043;-72
2023/08/26 09:23:56;;;;;;;19.08;10.45;;;;;;;;;;5118724;27;20312;-73
2023/08/26 09:26:25;;;;;;;19.55;10.63;;;;;;;;;;5118202;27;20042;-72
2023/08/26 09:28:51;;;;;;;14.60;9.43;;;;;;;;;;5117411;27;20511;-72
2023/08/26 09:31:18;;;;;;;14.90;8.85;;;;;;;;;;5134783;27;20479;-72
2023/08/26 09:33:51;;;;;;;20.80;8.98;;;;;;;;;;5135386;27;20042;-72
2023/08/26 09:36:17;;;;;;;13.77;8.82;;;;;;;;;;5135251;27;20116;-72
2023/08/26 09:38:44;;;;;;;16.80;8.77;;;;;;;;;;5135604;27;20042;-72
2023/08/26 09:41:11;;;;;;;19.83;10.57;;;;;;;;;;5134935;27;20050;-72
2023/08/26 09:43:41;;;;;;;16.33;6.80;;;;;;;;;;5117622;27;20050;-72
2023/08/26 09:46:07;;;;;;;15.13;7.32;;;;;;;;;;5135632;27;20103;-74
2023/08/26 09:48:34;;;;;;;;;;;;;;;;;;5135078;27;20038;-72
2023/08/26 09:51:00;;;;;;;;;;;;;;;;;;5136051;27;19923;-72
2023/08/26 09:53:33;;;;;;;13.90;5.85;;;;;;;;;;5134895;27;20610;-72
2023/08/26 09:55:59;;;;;;;15.05;6.35;;;;;;;;;;5135363;27;20055;-72
2023/08/26 09:58:25;;;;;;;11.80;4.70;;;;;;;;;;5134065;27;20061;-72
2023/08/26 10:00:53;;;;;;;12.82;4.43;;;;;;;;;;5135580;27;20692;-72
2023/08/26 10:03:22;;;;;;;11.45;4.20;;;;;;;;;;5133856;27;20038;-72
2023/08/26 10:05:50;;;;;;;12.13;4.22;;;;;;;;;;5118339;27;20062;-72
2023/08/26 10:08:17;;;;;;;12.25;4.60;;;;;;;;;;5134737;27;20066;-72
2023/08/26 10:10:47;;;;;;;9.90;4.30;;;;;;;;;;5135240;27;20087;-73
2023/08/26 10:13:15;;;;;;;10.20;3.90;;;;;;;;;;5133947;27;20387;-73
2023/08/26 10:15:42;;;;;;;9.15;3.72;;;;;;;;;;5135086;27;20509;-72
2023/08/26 10:18:16;;;;;;;9.98;2.70;;;;;;;;;;5117887;27;20399;-72
2023/08/26 10:20:44;;;;;;;9.10;2.65;;;;;;;;;;5134921;27;20372;-72
2023/08/26 10:23:11;;;;;;;7.43;3.05;;;;;;;;;;5153294;27;20047;-72
2023/08/26 10:25:37;;;;;;;8.73;2.63;;;;;;;;;;5134953;27;20042;-72
2023/08/26 10:28:04;;;;;;;12.13;3.28;;;;;;;;;;5134251;27;20057;-72
2023/08/26 10:30:31;;;;;;;6.88;2.40;;;;;;;;;;5117653;27;20153;-72
2023/08/26 10:33:01;;;;;;;7.20;2.17;;;;;;;;;;5098513;27;20128;-72
2023/08/26 10:35:27;;;;;;;9.10;2.60;;;;;;;;;;5130340;28;20051;-73
2023/08/26 10:38:08;;;;;;;6.25;2.55;;;;;;;;;;5130392;27;20484;-72
2023/08/26 10:40:34;;;;;;;8.35;2.40;;;;;;;;;;5128890;28;20050;-72
2023/08/26 10:43:07;;;;;;;6.85;2.45;;;;;;;;;;5129635;27;20136;-73
2023/08/26 10:45:33;;;;;;;5.18;2.40;;;;;;;;;;5114397;27;20057;-73
2023/08/26 10:48:02;;;;;;;7.18;2.25;;;;;;;;;;5117838;27;20084;-72
2023/08/26 10:50:28;;;;;;;7.57;2.45;;;;;;;;;;5132382;27;20062;-72
2023/08/26 10:52:56;;;;;;;7.93;2.42;;;;;;;;;;5138651;27;20054;-72
2023/08/26 10:55:22;;;;;;;7.47;2.00;;;;;;;;;;5136706;27;20039;-72
2023/08/26 10:58:11;;;;;;;8.25;2.05;;;;;;;;;;5117491;27;20047;-73
2023/08/26 11:00:38;;;;;;;7.13;1.85;;;;;;;;;;5115521;27;20047;-72
2023/08/26 11:03:08;;;;;;;8.45;2.05;;;;;;;;;;5117140;27;20043;-72
2023/08/26 11:05:36;;;;;;;7.80;2.10;;;;;;;;;;5113620;28;20516;-72
2023/08/26 11:08:03;;;;;;;6.13;2.03;;;;;;;;;;5114487;28;20047;-72
2023/08/26 11:10:33;;;;;;;8.15;2.30;;;;;;;;;;5114132;28;20040;-72
2023/08/26 11:13:00;;;;;;;4.88;1.75;;;;;;;;;;5113668;28;20047;-72
2023/08/26 11:15:36;;;;;;;6.18;2.35;;;;;;;;;;5113726;28;20480;-74
2023/08/26 11:18:02;;;;;;;8.80;2.30;;;;;;;;;;5114048;28;20134;-73
2023/08/26 11:20:28;;;;;;;4.63;2.40;;;;;;;;;;5113690;28;20051;-72
2023/08/26 11:22:55;;;;;;;3.85;1.95;;;;;;;;;;5096892;28;20096;-72
2023/08/26 11:25:21;;;;;;;4.75;2.10;;;;;;;;;;5113508;28;20131;-73
2023/08/26 11:27:47;;;;;;;6.60;1.77;;;;;;;;;;5113289;28;20549;-72
2023/08/26 11:30:13;;;;;;;6.93;1.85;;;;;;;;;;5096769;28;20073;-73
2023/08/26 11:32:40;;;;;;;5.88;1.90;;;;;;;;;;5113206;28;20154;-72
2023/08/26 11:35:07;;;;;;;5.32;1.70;;;;;;;;;;5114118;28;20043;-72
2023/08/26 11:37:44;;;;;;;5.47;1.85;;;;;;;;;;5113431;28;20054;-72
2023/08/26 11:40:11;;;;;;;4.38;1.52;;;;;;;;;;5113673;28;20047;-72
2023/08/26 11:42:37;;;;;;;4.07;1.60;;;;;;;;;;5095691;28;20101;-73
2023/08/26 11:45:04;;;;;;;5.60;1.70;;;;;;;;;;5113488;28;20043;-73
2023/08/26 11:47:30;;;;;;;5.47;1.60;;;;;;;;;;5095943;28;20051;-73
2023/08/26 11:49:57;;;;;;;4.35;1.23;;;;;;;;;;5114815;28;20476;-73
2023/08/26 11:52:35;;;;;;;3.90;1.15;;;;;;;;;;5113085;28;20044;-73
2023/08/26 11:55:05;;;;;;;5.82;1.30;;;;;;;;;;5114463;28;20044;-72
2023/08/26 11:57:37;;;;;;;4.35;1.30;;;;;;;;;;5113633;28;20575;-73
2023/08/26 12:00:09;;;;;;;4.47;1.10;;;;;;;;;;5096208;28;20134;-73
2023/08/26 12:02:35;;;;;;;2.13;1.00;;;;;;;;;;5112441;28;20126;-73
2023/08/26 12:05:02;;;;;;;4.15;1.35;;;;;;;;;;5113223;28;20056;-73
2023/08/26 12:07:29;;;;;;;6.20;1.20;;;;;;;;;;5112619;28;20488;-73
2023/08/26 12:09:57;;;;;;;3.75;1.27;;;;;;;;;;5113429;28;20050;-73
2023/08/26 12:12:23;;;;;;;2.85;1.00;;;;;;;;;;5112554;28;20047;-76
2023/08/26 12:14:49;;;;;;;3.35;1.05;;;;;;;;;;5078965;28;20066;-72
2023/08/26 12:17:16;;;;;;;3.25;1.00;;;;;;;;;;5112904;28;20067;-73
2023/08/26 12:19:42;;;;;;;5.13;1.15;;;;;;;;;;5112810;28;20055;-72
2023/08/26 12:22:09;;;;;;;4.68;1.30;;;;;;;;;;5112891;28;20044;-73
2023/08/26 12:24:37;;;;;;;2.47;1.30;;;;;;;;;;5112736;28;20054;-72
2023/08/26 12:27:10;;;;;;;6.55;0.98;;;;;;;;;;5096003;28;20471;-73
2023/08/26 12:29:37;;;;;;;1.98;1.13;;;;;;;;;;5094948;28;20087;-73
2023/08/26 12:32:04;;;;;;;6.07;1.38;;;;;;;;;;5112518;28;20050;-72
2023/08/26 12:34:30;;;;;;;3.55;1.10;;;;;;;;;;5112542;28;20047;-72
2023/08/26 12:36:56;;;;;;;5.13;1.10;;;;;;;;;;5112828;28;20083;-72
2023/08/26 12:39:25;;;;;;;4.57;1.20;;;;;;;;;;5112803;28;20047;-72
2023/08/26 12:41:55;;;;;;;3.63;1.30;;;;;;;;;;5112266;28;20047;-73
2023/08/26 12:44:25;;;;;;;2.55;1.20;;;;;;;;;;5111870;28;20101;-73
2023/08/26 12:46:51;;;;;;;4.03;1.30;;;;;;;;;;5113220;28;20043;-72
2023/08/26 12:49:17;;;;;;;4.60;1.20;;;;;;;;;;5112511;28;20719;-73
2023/08/26 12:51:43;;;;;;;2.60;1.10;;;;;;;;;;5112090;28;20043;-73
2023/08/26 12:54:10;;;;;;;2.35;0.93;;;;;;;;;;5112420;28;20043;-73
2023/08/26 12:56:36;;;;;;;2.00;1.10;;;;;;;;;;5111855;28;20396;-73
2023/08/26 12:59:03;;;;;;;4.18;1.33;;;;;;;;;;5094604;28;20048;-72
2023/08/26 13:01:29;;;;;;;3.97;1.17;;;;;;;;;;5112161;28;20085;-76
2023/08/26 13:03:55;;;;;;;1.73;1.20;;;;;;;;;;5111519;28;20051;-73
2023/08/26 13:06:21;;;;;;;2.90;1.20;;;;;;;;;;5111673;28;20089;-72
2023/08/26 13:08:47;;;;;;;2.75;1.42;;;;;;;;;;5111617;28;20056;-73
2023/08/26 13:11:13;;;;;;;3.83;1.40;;;;;;;;;;5112191;28;20047;-72
2023/08/26 13:13:39;;;;;;;2.28;1.10;;;;;;;;;;5110714;28;20048;-73
2023/08/26 13:16:05;;;;;;;3.08;1.50;;;;;;;;;;5112294;28;20079;-72
2023/08/26 13:18:31;;;;;;;2.10;1.48;;;;;;;;;;5094454;28;20062;-76
2023/08/26 13:20:57;;;;;;;3.65;1.25;;;;;;;;;;5112087;28;20051;-72
2023/08/26 13:23:23;;;;;;;4.90;1.60;;;;;;;;;;5094561;28;20079;-72
2023/08/26 13:25:49;;;;;;;3.13;1.33;;;;;;;;;;5111372;28;20084;-72
2023/08/26 13:28:15;;;;;;;2.88;1.65;;;;;;;;;;5110935;28;20078;-72
2023/08/26 13:30:41;;;;;;;4.20;1.58;;;;;;;;;;5111507;28;20043;-72
2023/08/26 13:33:08;;;;;;;3.90;1.63;;;;;;;;;;5111374;28;20055;-72
2023/08/26 13:35:34;;;;;;;2.45;1.50;;;;;;;;;;5094569;28;20044;-76
2023/08/26 13:38:00;;;;;;;3.03;1.42;;;;;;;;;;5111656;28;20043;-73
2023/08/26 13:40:26;;;;;;;5.60;1.98;;;;;;;;;;5111858;28;20047;-73
2023/08/26 13:42:54;;;;;;;3.03;1.60;;;;;;;;;;5110293;28;20047;-73
2023/08/26 13:45:20;;;;;;;4.47;1.50;;;;;;;;;;5111394;28;20047;-72
2023/08/26 13:47:46;;;;;;;5.10;2.15;;;;;;;;;;5111766;28;20047;-72
2023/08/26 13:50:13;;;;;;;5.10;1.80;;;;;;;;;;5111689;28;20051;-72
2023/08/26 13:52:39;;;;;;;4.68;1.80;;;;;;;;;;5110939;28;20056;-72
2023/08/26 13:55:06;;;;;;;6.15;1.80;;;;;;;;;;5111338;28;20043;-72
2023/08/26 13:57:33;;;;;;;7.20;2.20;;;;;;;;;;5110918;28;20047;-72
2023/08/26 13:59:59;;;;;;;5.60;2.17;;;;;;;;;;5110208;28;20043;-72
2023/08/26 14:02:25;;;;;;;2.65;1.80;;;;;;;;;;5110602;28;20051;-72
2023/08/26 14:04:51;;;;;;;3.05;1.60;;;;;;;;;;5076847;28;20090;-72
2023/08/26 14:07:17;;;;;;;2.97;1.60;;;;;;;;;;5094411;28;20476;-72
2023/08/26 14:09:43;;;;;;;4.38;1.80;;;;;;;;;;5110876;28;20438;-71
2023/08/26 14:12:09;;;;;;;3.20;1.52;;;;;;;;;;5094065;28;20476;-72
2023/08/26 14:14:35;;;;;;;4.18;1.80;;;;;;;;;;5111788;28;20052;-72
2023/08/26 14:17:01;;;;;;;3.40;1.63;;;;;;;;;;5093722;28;20047;-72
2023/08/26 14:19:27;;;;;;;2.97;1.60;;;;;;;;;;5115056;27;20054;-72
2023/08/26 14:21:53;;;;;;;2.45;1.42;;;;;;;;;;5126464;27;20172;-72
2023/08/26 14:24:19;;;;;;;3.08;1.27;;;;;;;;;;5127395;27;20039;-72
2023/08/26 14:26:45;;;;;;;4.47;1.60;;;;;;;;;;5121049;27;20043;-72
2023/08/26 14:29:11;;;;;;;3.13;1.50;;;;;;;;;;5121576;27;20047;-72
2023/08/26 14:31:38;;;;;;;3.47;1.40;;;;;;;;;;5114790;28;20049;-75
2023/08/26 14:34:04;;;;;;;2.72;1.33;;;;;;;;;;5114652;28;20100;-71
2023/08/26 14:36:30;;;;;;;2.60;1.30;;;;;;;;;;5115284;28;20040;-72
2023/08/26 14:38:56;;;;;;;4.13;1.50;;;;;;;;;;5097623;28;20043;-72
2023/08/26 14:41:22;;;;;;;3.28;1.52;;;;;;;;;;5115067;28;20077;-72
2023/08/26 14:43:49;;;;;;;7.78;1.60;;;;;;;;;;5113353;28;20511;-72
2023/08/26 14:46:15;;;;;;;5.82;1.58;;;;;;;;;;5098218;28;20047;-72
2023/08/26 14:48:41;;;;;;;6.32;1.80;;;;;;;;;;5115079;28;20108;-72